createdAt,value
2023-03-12T00:01:33.590Z,99598.94
2023-03-12T00:05:36.379Z,99604.3
2023-03-12T00:09:35.410Z,99592.52
2023-03-12T00:13:33.353Z,99596.06
2023-03-12T00:17:33.318Z,99601.19
2023-03-12T00:21:33.406Z,99610.77
2023-03-12T00:25:33.358Z,99600.69
2023-03-12T00:37:33.564Z,99589.67
2023-03-12T00:41:33.699Z,99579.76999999999
2023-03-12T00:45:33.731Z,99574.32
2023-03-12T00:49:33.423Z,99577.86
2023-03-12T00:53:33.790Z,99591.42
2023-03-12T00:57:33.496Z,99593.02
2023-03-12T01:01:33.564Z,99595.45000000001
2023-03-12T01:05:36.707Z,99598.91
2023-03-12T01:13:33.529Z,99600.66
2023-03-12T01:17:33.565Z,99601.98000000001
2023-03-12T01:21:33.500Z,99602.84
2023-03-12T01:25:34.935Z,99614.21
2023-03-12T01:29:33.509Z,99606.23000000001
2023-03-12T01:33:33.586Z,99603.03
2023-03-12T01:37:33.719Z,99594.09000000001
2023-03-12T01:41:33.596Z,99591.09999999999
2023-03-12T01:45:53.326Z,99581.25
2023-03-12T01:53:33.761Z,99565.23
2023-03-12T01:57:36.349Z,99589.33
2023-03-12T02:01:34.272Z,99587.58
2023-03-12T02:09:37.726Z,99587.61
2023-03-12T02:13:33.647Z,99583.82
2023-03-12T02:17:35.290Z,99586.49
2023-03-12T02:21:36.174Z,99591.06
2023-03-12T02:25:37.497Z,99590.11
2023-03-12T02:29:36.606Z,99586.28
2023-03-12T02:37:33.727Z,99577.92
2023-03-12T02:41:37.378Z,99583.03
2023-03-12T02:45:35.130Z,99577.87
2023-03-12T02:49:34.635Z,99569.76
2023-03-12T02:53:33.872Z,99574.94
2023-03-12T02:57:36.536Z,99568.1
2023-03-12T03:01:34.321Z,99566.09
2023-03-12T03:05:36.127Z,99558.48
2023-03-12T03:09:33.826Z,99570.86
2023-03-12T03:13:34.329Z,99566.49
2023-03-12T03:17:34.039Z,99566.95999999999
2023-03-12T03:33:35.767Z,99574.14
2023-03-12T03:41:34.244Z,99591.42
2023-03-12T03:45:33.949Z,99602.48
2023-03-12T03:53:34.146Z,99617.46
2023-03-12T03:57:33.912Z,99626.83
2023-03-12T04:01:33.924Z,99639.33
2023-03-12T04:05:33.970Z,99643.83
2023-03-12T04:09:34.063Z,99651.4
2023-03-12T04:13:34.001Z,99658.64
2023-03-12T04:17:34.132Z,99663.97
2023-03-12T04:21:33.973Z,99668.24
2023-03-12T04:25:34.503Z,99676.14
2023-03-12T04:29:33.985Z,99675.58
2023-03-12T04:37:34.026Z,99671.8
2023-03-12T04:41:35.039Z,99674.95
2023-03-12T04:49:34.152Z,99674.36
2023-03-12T04:53:34.319Z,99687.03
2023-03-12T04:57:34.473Z,99687.27
2023-03-12T05:05:34.820Z,99700.51
2023-03-12T05:09:34.190Z,99711.17
2023-03-12T05:17:34.239Z,99716.31999999999
2023-03-12T05:21:34.432Z,99719.18
2023-03-12T05:25:38.415Z,99728.23
2023-03-12T05:29:34.557Z,99719.98
2023-03-12T05:33:34.185Z,99724.05
2023-03-12T05:37:34.167Z,99737.28
2023-03-12T05:41:34.419Z,99744.19
2023-03-12T05:49:34.483Z,99740.37
2023-03-12T05:53:34.406Z,99736.01
2023-03-12T05:57:34.258Z,99737.51
2023-03-12T06:05:35.260Z,99732.12
2023-03-12T06:09:34.814Z,99733.64
2023-03-12T06:13:34.718Z,99713.31
2023-03-12T06:17:34.264Z,99710.06
2023-03-12T06:21:35.160Z,99715.99
2023-03-12T06:25:34.363Z,99722.38
2023-03-12T06:33:34.869Z,99725.89
2023-03-12T06:37:34.457Z,99724.41
2023-03-12T06:45:34.452Z,99740.65000000001
2023-03-12T06:53:34.781Z,99762.15999999999
2023-03-12T07:01:34.592Z,99766.68
2023-03-12T07:05:34.615Z,99753.91
2023-03-12T07:09:34.601Z,99762.23
2023-03-12T07:13:34.803Z,99771.92
2023-03-12T07:17:34.870Z,99779.5
2023-03-12T07:21:34.467Z,99784.52
2023-03-12T07:25:35.870Z,99777.61
2023-03-12T07:29:34.797Z,99781.36
2023-03-12T07:33:34.989Z,99787.77
2023-03-12T07:37:34.517Z,99795.70999999999
2023-03-12T07:41:36.434Z,99794.37000000001
2023-03-12T07:45:34.518Z,99781.12999999999
2023-03-12T07:49:34.717Z,99802.84
2023-03-12T07:53:34.628Z,99801.64
2023-03-12T07:57:35.040Z,99805.03
2023-03-12T08:01:34.648Z,99792.54
2023-03-12T08:05:34.722Z,99799.7
2023-03-12T08:09:34.784Z,99797.32
2023-03-12T08:13:35.021Z,99813.53
2023-03-12T08:21:34.706Z,99813.12000000001
2023-03-12T08:25:35.802Z,99816.58
2023-03-12T08:29:34.751Z,99818.48
2023-03-12T08:33:34.941Z,99809.19
2023-03-12T08:37:35.151Z,99814.22
2023-03-12T08:41:34.660Z,99808.09000000001
2023-03-12T08:45:35.518Z,99819.09000000001
2023-03-12T08:49:34.666Z,99822.77
2023-03-12T08:53:35.971Z,99819.5
2023-03-12T08:57:34.743Z,99807.73000000001
2023-03-12T09:01:35.078Z,99806.17
2023-03-12T09:05:34.803Z,99805.59
2023-03-12T09:09:35.325Z,99808.58
2023-03-12T09:13:54.939Z,99819.2
2023-03-12T09:17:35.003Z,99817.72
2023-03-12T09:21:34.745Z,99817.97
2023-03-12T09:25:34.923Z,99824.28
2023-03-12T09:29:37.985Z,99833.17
2023-03-12T09:33:35.152Z,99821.03
2023-03-12T09:37:34.893Z,99820.2
2023-03-12T09:41:38.373Z,99827.35
2023-03-12T09:45:37.716Z,99825.19
2023-03-12T09:49:39.846Z,99826.15
2023-03-12T09:53:40.186Z,99830.6
2023-03-12T09:57:35.110Z,99827.81
2023-03-12T10:01:40.900Z,99813.72
2023-03-12T10:05:39.685Z,99816.52
2023-03-12T10:09:45.107Z,99805.94
2023-03-12T10:13:46.512Z,99803.81
2023-03-12T10:17:45.534Z,99802.64
2023-03-12T10:21:44.609Z,99812.01999999999
2023-03-12T10:25:41.321Z,99804.04
2023-03-12T10:29:41.525Z,99813.37
2023-03-12T10:33:43.850Z,99800.25
2023-03-12T10:37:39.709Z,99804.06
2023-03-12T10:41:35.641Z,99786.76000000001
2023-03-12T10:45:41.043Z,99792.62999999999
2023-03-12T10:49:36.223Z,99778.23
2023-03-12T10:53:36.476Z,99772.41
2023-03-12T10:57:39.831Z,99765.09
2023-03-12T11:01:37.411Z,99770.37
2023-03-12T11:05:44.646Z,99771.25
2023-03-12T11:09:35.258Z,99781.06
2023-03-12T11:13:37.107Z,99772.70999999999
2023-03-12T11:17:35.232Z,99784.37
2023-03-12T11:21:37.247Z,99772.93
2023-03-12T11:25:35.305Z,99762.78
2023-03-12T11:29:39.021Z,99766.95999999999
2023-03-12T11:33:35.430Z,99769.53
2023-03-12T11:37:45.390Z,99769.48
2023-03-12T11:41:44.731Z,99772.34
2023-03-12T11:45:44.839Z,99771.51
2023-03-12T11:49:49.692Z,99774.11
2023-03-12T11:53:48.976Z,99765.03
2023-03-12T11:57:46.721Z,99760.0
2023-03-12T12:01:49.471Z,99756.02
2023-03-12T12:09:43.856Z,99767.56
2023-03-12T12:13:44.700Z,99775.16
2023-03-12T12:17:50.692Z,99765.49
2023-03-12T12:25:48.843Z,99761.99
2023-03-12T12:29:51.554Z,99756.36
2023-03-12T12:33:49.803Z,99749.06
2023-03-12T12:37:42.547Z,99744.51000000001
2023-03-12T12:41:39.370Z,99746.55
2023-03-12T12:45:38.770Z,99735.25
2023-03-12T12:49:42.842Z,99729.76999999999
2023-03-12T12:53:43.014Z,99721.51
2023-03-12T12:57:39.839Z,99713.23
2023-03-12T13:01:36.970Z,99713.76000000001
2023-03-12T13:05:49.301Z,99702.73
2023-03-12T13:17:55.263Z,99701.36
2023-03-12T13:21:39.487Z,99700.48000000001
2023-03-12T13:25:50.167Z,99697.63
2023-03-12T13:29:38.705Z,99687.97
2023-03-12T13:33:39.975Z,99672.41
2023-03-12T13:37:55.815Z,99679.86
2023-03-12T13:41:37.608Z,99662.75
2023-03-12T13:45:49.612Z,99664.70000000001
2023-03-12T13:49:40.982Z,99648.1
2023-03-12T13:53:40.477Z,99640.5
2023-03-12T13:57:39.826Z,99634.06
2023-03-12T14:01:40.226Z,99614.84
2023-03-12T14:05:44.901Z,99612.19
2023-03-12T14:09:43.870Z,99618.87000000001
2023-03-12T14:13:51.634Z,99615.26
2023-03-12T14:17:37.304Z,99617.13
2023-03-12T14:21:40.160Z,99608.48
2023-03-12T14:25:38.753Z,99609.34999999999
2023-03-12T14:29:37.978Z,99616.38
2023-03-12T14:33:49.522Z,99602.84
2023-03-12T14:37:40.447Z,99589.81
2023-03-12T14:41:41.413Z,99597.09
2023-03-12T14:45:39.072Z,99598.56
2023-03-12T14:49:39.748Z,99599.11
2023-03-12T14:53:37.175Z,99591.39
2023-03-12T14:57:35.830Z,99570.22
2023-03-12T15:05:36.042Z,99560.41
2023-03-12T15:09:36.240Z,99579.78
2023-03-12T15:13:37.016Z,99575.19
2023-03-12T15:17:36.556Z,99582.79
2023-03-12T15:21:36.167Z,99566.16
2023-03-12T15:25:35.905Z,99582.70999999999
2023-03-12T15:29:40.788Z,99568.78
2023-03-12T15:33:35.827Z,99560.72
2023-03-12T15:37:37.208Z,99561.23999999999
2023-03-12T15:41:42.094Z,99545.68000000001
2023-03-12T15:45:38.235Z,99537.2
2023-03-12T15:49:37.211Z,99526.67
2023-03-12T15:53:35.967Z,99521.91
2023-03-12T16:01:45.997Z,99507.54
2023-03-12T16:05:38.914Z,99492.75
2023-03-12T16:09:36.223Z,99495.06
2023-03-12T16:13:36.353Z,99495.86
2023-03-12T16:17:36.113Z,99487.91
2023-03-12T16:21:36.034Z,99483.56
2023-03-12T16:29:38.875Z,99472.14
2023-03-12T16:33:36.060Z,99466.26
2023-03-12T16:37:36.125Z,99470.33
2023-03-12T16:41:36.125Z,99462.31
2023-03-12T16:45:36.746Z,99465.20000000001
2023-03-12T16:53:36.246Z,99439.63
2023-03-12T16:57:38.785Z,99433.34
2023-03-12T17:01:36.366Z,99431.09
2023-03-12T17:05:36.047Z,99418.22
2023-03-12T17:13:36.175Z,99392.38
2023-03-12T17:17:36.125Z,99401.83
2023-03-12T17:21:36.797Z,99394.78
2023-03-12T17:25:38.813Z,99389.54
2023-03-12T17:29:36.272Z,99386.72
2023-03-12T17:33:37.231Z,99367.88
2023-03-12T17:41:36.446Z,99363.19
2023-03-12T17:45:36.331Z,99361.72
2023-03-12T17:49:36.507Z,99355.83
2023-03-12T17:53:38.464Z,99348.6
2023-03-12T17:57:36.827Z,99339.03
2023-03-12T18:01:36.309Z,99331.48
2023-03-12T18:05:37.501Z,99328.81
2023-03-12T18:09:36.231Z,99329.9
2023-03-12T18:13:36.369Z,99325.07
2023-03-12T18:17:36.363Z,99312.7
2023-03-12T18:21:36.385Z,99309.06
2023-03-12T18:25:37.032Z,99302.91
2023-03-12T18:29:36.476Z,99302.39
2023-03-12T18:33:37.042Z,99299.37999999999
2023-03-12T18:37:36.386Z,99295.83
2023-03-12T18:45:39.943Z,99281.36
2023-03-12T18:49:36.365Z,99266.18
2023-03-12T18:53:36.456Z,99262.42
2023-03-12T18:57:36.309Z,99255.8
2023-03-12T19:01:36.655Z,99251.42
2023-03-12T19:05:36.524Z,99248.25
2023-03-12T19:09:36.424Z,99245.04
2023-03-12T19:13:36.783Z,99228.28
2023-03-12T19:17:36.603Z,99227.26
2023-03-12T19:25:36.753Z,99217.67
2023-03-12T19:33:37.134Z,99193.69
2023-03-12T19:37:36.827Z,99176.79000000001
2023-03-12T19:41:36.641Z,99166.06
2023-03-12T19:49:36.772Z,99131.03
2023-03-12T19:53:37.038Z,99105.36
2023-03-12T19:57:37.501Z,99087.51999999999
2023-03-12T20:05:36.683Z,99081.54
2023-03-12T20:09:36.632Z,99069.73000000001
2023-03-12T20:13:37.739Z,99048.8
2023-03-12T20:17:36.675Z,99044.98
2023-03-12T20:21:36.871Z,99038.25
2023-03-12T20:25:38.814Z,99028.19
2023-03-12T20:33:37.394Z,99007.92
2023-03-12T20:37:36.653Z,99014.29000000001
2023-03-12T20:41:36.679Z,99015.09
2023-03-12T20:49:36.758Z,98996.26
2023-03-12T20:53:36.738Z,98984.96
2023-03-12T20:57:36.763Z,98972.23
2023-03-12T21:01:37.219Z,98961.39
2023-03-12T21:05:36.768Z,98943.68
2023-03-12T21:09:36.991Z,98920.4
2023-03-12T21:13:36.792Z,98912.19
2023-03-12T21:17:38.780Z,98901.73
2023-03-12T21:25:39.177Z,98898.8
2023-03-12T21:29:36.790Z,98877.31
2023-03-12T21:33:37.334Z,98883.67
2023-03-12T21:37:36.808Z,98877.39
2023-03-12T21:41:37.356Z,98877.09
2023-03-12T21:45:39.273Z,98872.03
2023-03-12T21:49:37.090Z,98865.56
2023-03-12T21:53:37.548Z,98857.03
2023-03-12T21:57:37.062Z,98842.11
2023-03-12T22:09:36.955Z,98803.21
2023-03-12T22:17:37.028Z,98791.31999999999
2023-03-12T22:21:37.350Z,98772.34
2023-03-12T22:25:36.909Z,98766.3
2023-03-12T22:29:36.924Z,98754.37
2023-03-12T22:33:37.223Z,98762.94
2023-03-12T22:37:36.984Z,98737.42
2023-03-12T22:41:37.170Z,98712.93
2023-03-12T22:45:36.991Z,98697.13
2023-03-12T22:53:37.653Z,98709.69
2023-03-12T22:57:37.506Z,98716.8
2023-03-12T23:01:37.358Z,98715.44
2023-03-12T23:05:37.018Z,98701.39
2023-03-12T23:09:37.209Z,98699.55
2023-03-12T23:13:40.362Z,98689.14
2023-03-12T23:17:37.343Z,98680.29000000001
2023-03-12T23:21:37.091Z,98669.45
2023-03-12T23:25:37.383Z,98652.45
2023-03-12T23:29:37.148Z,98653.28
2023-03-12T23:33:37.284Z,98647.55
2023-03-12T23:37:37.128Z,98637.31
2023-03-12T23:41:37.585Z,98627.75
2023-03-12T23:45:37.149Z,98605.7
2023-03-12T23:49:37.239Z,98587.41
2023-03-12T23:53:38.652Z,98590.29000000001
2023-03-12T23:57:37.390Z,98582.59000000001
